sensor_id;sensor_type;location;lat;lon;timestamp;pressure;altitude;pressure_sealevel;temperature;humidity
54592;BME280;40488;48.558;18.150;2023-03-14T00:02:01;98512.50;;;11.18;52.83
54592;BME280;40488;48.558;18.150;2023-03-14T00:04:29;98505.63;;;11.20;52.68
54592;BME280;40488;48.558;18.150;2023-03-14T00:06:58;98507.28;;;11.21;52.78
54592;BME280;40488;48.558;18.150;2023-03-14T00:09:26;98504.72;;;11.22;52.64
54592;BME280;40488;48.558;18.150;2023-03-14T00:11:57;98495.44;;;11.20;52.65
54592;BME280;40488;48.558;18.150;2023-03-14T00:14:25;98504.75;;;11.21;52.59
54592;BME280;40488;48.558;18.150;2023-03-14T00:16:53;98490.22;;;11.23;52.39
54592;BME280;40488;48.558;18.150;2023-03-14T00:19:23;98478.25;;;11.26;52.64
54592;BME280;40488;48.558;18.150;2023-03-14T00:21:52;98475.63;;;11.28;52.61
54592;BME280;40488;48.558;18.150;2023-03-14T00:24:20;98468.88;;;11.27;52.36
54592;BME280;40488;48.558;18.150;2023-03-14T00:26:49;98480.00;;;11.24;52.67
54592;BME280;40488;48.558;18.150;2023-03-14T00:29:17;98480.00;;;11.23;52.63
54592;BME280;40488;48.558;18.150;2023-03-14T00:31:46;98488.63;;;11.19;52.60
54592;BME280;40488;48.558;18.150;2023-03-14T00:34:14;98476.81;;;11.15;52.84
54592;BME280;40488;48.558;18.150;2023-03-14T00:36:44;98458.94;;;11.13;52.78
54592;BME280;40488;48.558;18.150;2023-03-14T00:39:12;98445.44;;;11.10;52.36
54592;BME280;40488;48.558;18.150;2023-03-14T00:41:41;98438.63;;;11.10;52.38
54592;BME280;40488;48.558;18.150;2023-03-14T00:44:10;98425.13;;;11.05;52.43
54592;BME280;40488;48.558;18.150;2023-03-14T00:46:38;98426.88;;;11.03;52.57
54592;BME280;40488;48.558;18.150;2023-03-14T00:49:08;98424.31;;;11.02;52.57
54592;BME280;40488;48.558;18.150;2023-03-14T00:51:36;98422.72;;;10.98;52.34
54592;BME280;40488;48.558;18.150;2023-03-14T00:54:06;98410.19;;;10.89;52.73
54592;BME280;40488;48.558;18.150;2023-03-14T00:56:34;98400.06;;;10.84;53.09
54592;BME280;40488;48.558;18.150;2023-03-14T00:59:03;98389.09;;;10.81;52.76
54592;BME280;40488;48.558;18.150;2023-03-14T01:01:32;98382.31;;;10.80;53.25
54592;BME280;40488;48.558;18.150;2023-03-14T01:04:01;98382.31;;;10.80;52.90
54592;BME280;40488;48.558;18.150;2023-03-14T01:06:30;98370.41;;;10.78;52.72
54592;BME280;40488;48.558;18.150;2023-03-14T01:08:58;98363.63;;;10.77;53.29
54592;BME280;40488;48.558;18.150;2023-03-14T01:11:29;98357.72;;;10.77;53.32
54592;BME280;40488;48.558;18.150;2023-03-14T01:13:58;98347.41;;;10.80;52.77
54592;BME280;40488;48.558;18.150;2023-03-14T01:16:28;98329.44;;;10.85;53.01
54592;BME280;40488;48.558;18.150;2023-03-14T01:19:00;98322.59;;;10.87;52.60
54592;BME280;40488;48.558;18.150;2023-03-14T01:21:30;98326.00;;;10.86;52.84
54592;BME280;40488;48.558;18.150;2023-03-14T01:23:59;98326.81;;;10.88;52.52
54592;BME280;40488;48.558;18.150;2023-03-14T01:26:30;98315.81;;;10.86;52.37
54592;BME280;40488;48.558;18.150;2023-03-14T01:29:00;98307.34;;;10.84;52.67
54592;BME280;40488;48.558;18.150;2023-03-14T01:31:30;98298.81;;;10.85;52.61
54592;BME280;40488;48.558;18.150;2023-03-14T01:33:58;98291.97;;;10.87;52.49
54592;BME280;40488;48.558;18.150;2023-03-14T01:36:27;98289.56;;;10.81;52.51
54592;BME280;40488;48.558;18.150;2023-03-14T01:39:00;98282.78;;;10.80;52.59
54592;BME280;40488;48.558;18.150;2023-03-14T01:41:30;98304.88;;;10.81;52.77
54592;BME280;40488;48.558;18.150;2023-03-14T01:43:59;98309.09;;;10.82;52.70
54592;BME280;40488;48.558;18.150;2023-03-14T01:46:34;98310.88;;;10.80;52.94
54592;BME280;40488;48.558;18.150;2023-03-14T01:49:06;98310.78;;;10.83;52.85
54592;BME280;40488;48.558;18.150;2023-03-14T01:51:40;98304.91;;;10.79;52.41
54592;BME280;40488;48.558;18.150;2023-03-14T01:54:13;98310.94;;;10.76;52.74
54592;BME280;40488;48.558;18.150;2023-03-14T01:56:45;98303.28;;;10.75;52.86
54592;BME280;40488;48.558;18.150;2023-03-14T01:59:15;98308.56;;;10.69;52.86
54592;BME280;40488;48.558;18.150;2023-03-14T02:01:44;98295.84;;;10.67;53.08
54592;BME280;40488;48.558;18.150;2023-03-14T02:04:14;98305.19;;;10.67;52.98
54592;BME280;40488;48.558;18.150;2023-03-14T02:06:47;98298.41;;;10.66;52.71
54592;BME280;40488;48.558;18.150;2023-03-14T02:09:19;98290.81;;;10.64;52.93
54592;BME280;40488;48.558;18.150;2023-03-14T02:11:50;98289.13;;;10.63;52.79
54592;BME280;40488;48.558;18.150;2023-03-14T02:14:30;98287.47;;;10.62;52.85
54592;BME280;40488;48.558;18.150;2023-03-14T02:17:20;98268.69;;;10.63;52.93
54592;BME280;40488;48.558;18.150;2023-03-14T02:22:52;98265.41;;;10.58;53.13
54592;BME280;40488;48.558;18.150;2023-03-14T02:25:23;98275.56;;;10.61;53.06
54592;BME280;40488;48.558;18.150;2023-03-14T02:27:54;98277.31;;;10.59;53.18
54592;BME280;40488;48.558;18.150;2023-03-14T02:30:24;98253.56;;;10.57;53.39
54592;BME280;40488;48.558;18.150;2023-03-14T02:32:54;98251.88;;;10.56;53.13
54592;BME280;40488;48.558;18.150;2023-03-14T02:35:25;98249.97;;;10.64;53.20
54592;BME280;40488;48.558;18.150;2023-03-14T02:37:56;98236.44;;;10.62;52.77
54592;BME280;40488;48.558;18.150;2023-03-14T02:40:32;98210.16;;;10.59;52.74
54592;BME280;40488;48.558;18.150;2023-03-14T02:43:02;98205.16;;;10.54;53.05
54592;BME280;40488;48.558;18.150;2023-03-14T02:45:37;98211.28;;;10.47;52.86
54592;BME280;40488;48.558;18.150;2023-03-14T02:48:08;98211.44;;;10.41;53.03
54592;BME280;40488;48.558;18.150;2023-03-14T02:50:38;98204.78;;;10.34;53.13
54592;BME280;40488;48.558;18.150;2023-03-14T02:53:07;98187.81;;;10.33;53.36
54592;BME280;40488;48.558;18.150;2023-03-14T02:55:36;98198.09;;;10.30;53.46
54592;BME280;40488;48.558;18.150;2023-03-14T02:58:11;98194.75;;;10.28;53.80
54592;BME280;40488;48.558;18.150;2023-03-14T03:00:45;98196.50;;;10.26;54.28
54592;BME280;40488;48.558;18.150;2023-03-14T03:03:13;98196.50;;;10.26;53.69
54592;BME280;40488;48.558;18.150;2023-03-14T03:05:42;98205.00;;;10.25;53.84
54592;BME280;40488;48.558;18.150;2023-03-14T03:08:11;98186.44;;;10.20;54.33
54592;BME280;40488;48.558;18.150;2023-03-14T03:10:40;98172.81;;;10.21;53.89
54592;BME280;40488;48.558;18.150;2023-03-14T03:13:11;98170.25;;;10.21;54.48
54592;BME280;40488;48.558;18.150;2023-03-14T03:15:41;98175.31;;;10.23;54.42
54592;BME280;40488;48.558;18.150;2023-03-14T03:18:11;98157.47;;;10.24;54.43
54592;BME280;40488;48.558;18.150;2023-03-14T03:20:42;98148.84;;;10.28;54.76
54592;BME280;40488;48.558;18.150;2023-03-14T03:23:10;98140.41;;;10.26;54.79
54592;BME280;40488;48.558;18.150;2023-03-14T03:25:39;98144.53;;;10.30;55.02
54592;BME280;40488;48.558;18.150;2023-03-14T03:28:08;98164.94;;;10.30;54.63
54592;BME280;40488;48.558;18.150;2023-03-14T03:30:40;98187.88;;;10.32;55.31
54592;BME280;40488;48.558;18.150;2023-03-14T03:33:09;98173.38;;;10.34;54.99
54592;BME280;40488;48.558;18.150;2023-03-14T03:35:41;98162.25;;;10.36;55.42
54592;BME280;40488;48.558;18.150;2023-03-14T03:38:10;98182.53;;;10.41;55.39
54592;BME280;40488;48.558;18.150;2023-03-14T03:40:39;98172.00;;;10.54;55.53
54592;BME280;40488;48.558;18.150;2023-03-14T03:43:09;98163.31;;;10.61;55.46
54592;BME280;40488;48.558;18.150;2023-03-14T03:45:42;98166.66;;;10.63;55.20
54592;BME280;40488;48.558;18.150;2023-03-14T03:48:10;98145.41;;;10.63;55.82
54592;BME280;40488;48.558;18.150;2023-03-14T03:50:43;98147.16;;;10.61;55.65
54592;BME280;40488;48.558;18.150;2023-03-14T03:53:13;98138.69;;;10.60;54.96
54592;BME280;40488;48.558;18.150;2023-03-14T03:56:00;98134.59;;;10.53;54.96
54592;BME280;40488;48.558;18.150;2023-03-14T03:58:28;98136.34;;;10.51;54.67
54592;BME280;40488;48.558;18.150;2023-03-14T04:00:58;98138.13;;;10.49;54.72
54592;BME280;40488;48.558;18.150;2023-03-14T04:03:27;98142.34;;;10.50;54.84
54592;BME280;40488;48.558;18.150;2023-03-14T04:05:59;98133.00;;;10.49;55.10
54592;BME280;40488;48.558;18.150;2023-03-14T04:08:28;98133.00;;;10.49;55.08
54592;BME280;40488;48.558;18.150;2023-03-14T04:10:57;98137.97;;;10.55;55.25
54592;BME280;40488;48.558;18.150;2023-03-14T04:13:36;98137.81;;;10.61;54.85
54592;BME280;40488;48.558;18.150;2023-03-14T04:16:10;98140.34;;;10.61;55.61
54592;BME280;40488;48.558;18.150;2023-03-14T04:18:43;98145.34;;;10.66;55.77
54592;BME280;40488;48.558;18.150;2023-03-14T04:21:11;98144.50;;;10.65;55.50
54592;BME280;40488;48.558;18.150;2023-03-14T04:23:46;98144.50;;;10.65;55.54
54592;BME280;40488;48.558;18.150;2023-03-14T04:26:17;98143.44;;;10.72;55.73
54592;BME280;40488;48.558;18.150;2023-03-14T04:28:46;98132.25;;;10.80;55.55
54592;BME280;40488;48.558;18.150;2023-03-14T04:31:17;98126.31;;;10.77;55.41
54592;BME280;40488;48.558;18.150;2023-03-14T04:33:47;98135.91;;;10.69;55.88
54592;BME280;40488;48.558;18.150;2023-03-14T04:36:21;98131.78;;;10.64;55.69
54592;BME280;40488;48.558;18.150;2023-03-14T04:38:49;98140.22;;;10.66;55.35
54592;BME280;40488;48.558;18.150;2023-03-14T04:41:20;98135.97;;;10.66;55.57
54592;BME280;40488;48.558;18.150;2023-03-14T04:43:48;98141.06;;;10.66;55.28
54592;BME280;40488;48.558;18.150;2023-03-14T04:46:19;98146.19;;;10.66;55.70
54592;BME280;40488;48.558;18.150;2023-03-14T04:48:47;98157.38;;;10.61;56.07
54592;BME280;40488;48.558;18.150;2023-03-14T04:51:18;98146.38;;;10.59;55.48
54592;BME280;40488;48.558;18.150;2023-03-14T04:53:46;98140.31;;;10.63;55.32
54592;BME280;40488;48.558;18.150;2023-03-14T04:56:15;98119.09;;;10.62;55.72
54592;BME280;40488;48.558;18.150;2023-03-14T04:58:44;98124.56;;;10.47;55.91
54592;BME280;40488;48.558;18.150;2023-03-14T05:01:16;98107.03;;;10.35;55.88
54592;BME280;40488;48.558;18.150;2023-03-14T05:03:48;98097.72;;;10.33;56.17
54592;BME280;40488;48.558;18.150;2023-03-14T05:06:28;98105.16;;;10.42;55.85
54592;BME280;40488;48.558;18.150;2023-03-14T05:08:59;98106.53;;;10.53;56.34
54592;BME280;40488;48.558;18.150;2023-03-14T05:11:39;98104.56;;;10.64;56.36
54592;BME280;40488;48.558;18.150;2023-03-14T05:14:17;98098.56;;;10.65;56.10
54592;BME280;40488;48.558;18.150;2023-03-14T05:17:06;98081.53;;;10.67;55.74
54592;BME280;40488;48.558;18.150;2023-03-14T05:19:48;98078.84;;;10.72;55.74
54592;BME280;40488;48.558;18.150;2023-03-14T05:22:28;98101.50;;;10.83;55.83
54592;BME280;40488;48.558;18.150;2023-03-14T05:25:08;98100.56;;;10.87;55.87
54592;BME280;40488;48.558;18.150;2023-03-14T05:27:48;98115.00;;;10.88;55.92
54592;BME280;40488;48.558;18.150;2023-03-14T05:30:37;98094.56;;;10.88;55.83
54592;BME280;40488;48.558;18.150;2023-03-14T05:33:16;98097.88;;;10.91;56.07
54592;BME280;40488;48.558;18.150;2023-03-14T05:35:57;98099.59;;;10.91;55.72
54592;BME280;40488;48.558;18.150;2023-03-14T05:38:46;98093.66;;;10.90;55.96
54592;BME280;40488;48.558;18.150;2023-03-14T05:41:25;98086.88;;;10.89;56.06
54592;BME280;40488;48.558;18.150;2023-03-14T05:44:04;98097.03;;;10.91;55.71
54592;BME280;40488;48.558;18.150;2023-03-14T05:46:44;98085.97;;;10.92;56.12
54592;BME280;40488;48.558;18.150;2023-03-14T05:49:25;98096.13;;;10.93;56.00
54592;BME280;40488;48.558;18.150;2023-03-14T05:52:15;98098.63;;;10.95;56.44
54592;BME280;40488;48.558;18.150;2023-03-14T05:54:55;98103.78;;;10.93;55.97
54592;BME280;40488;48.558;18.150;2023-03-14T05:57:46;98114.91;;;10.91;56.06
54592;BME280;40488;48.558;18.150;2023-03-14T06:00:35;98097.00;;;10.92;56.36
54592;BME280;40488;48.558;18.150;2023-03-14T06:03:23;98097.84;;;10.93;56.36
54592;BME280;40488;48.558;18.150;2023-03-14T06:05:52;98085.84;;;10.96;57.07
54592;BME280;40488;48.558;18.150;2023-03-14T06:08:24;98092.56;;;10.99;56.81
54592;BME280;40488;48.558;18.150;2023-03-14T06:10:52;98092.56;;;10.99;57.31
54592;BME280;40488;48.558;18.150;2023-03-14T06:13:27;98099.25;;;11.03;57.38
54592;BME280;40488;48.558;18.150;2023-03-14T06:15:55;98116.91;;;11.10;57.68
54592;BME280;40488;48.558;18.150;2023-03-14T06:18:24;98118.56;;;11.11;57.84
54592;BME280;40488;48.558;18.150;2023-03-14T06:20:54;98117.75;;;11.11;58.19
54592;BME280;40488;48.558;18.150;2023-03-14T06:23:27;98099.25;;;11.03;58.11
54592;BME280;40488;48.558;18.150;2023-03-14T06:25:59;98110.88;;;11.13;58.21
54592;BME280;40488;48.558;18.150;2023-03-14T06:28:28;98117.75;;;11.11;57.89
54592;BME280;40488;48.558;18.150;2023-03-14T06:31:00;98119.41;;;11.12;58.43
54592;BME280;40488;48.558;18.150;2023-03-14T06:33:34;98121.09;;;11.13;58.12
54592;BME280;40488;48.558;18.150;2023-03-14T06:36:05;98139.19;;;11.05;57.77
54592;BME280;40488;48.558;18.150;2023-03-14T06:38:37;98136.84;;;10.98;58.04
54592;BME280;40488;48.558;18.150;2023-03-14T06:41:06;98152.41;;;10.89;57.66
54592;BME280;40488;48.558;18.150;2023-03-14T06:43:41;98149.84;;;10.89;58.16
54592;BME280;40488;48.558;18.150;2023-03-14T06:46:11;98149.13;;;10.84;58.72
54592;BME280;40488;48.558;18.150;2023-03-14T06:48:42;98136.53;;;10.77;58.29
54592;BME280;40488;48.558;18.150;2023-03-14T06:51:11;98147.31;;;10.89;58.71
54592;BME280;40488;48.558;18.150;2023-03-14T06:53:41;98150.72;;;10.88;58.84
54592;BME280;40488;48.558;18.150;2023-03-14T06:56:13;98173.69;;;10.88;58.70
54592;BME280;40488;48.558;18.150;2023-03-14T06:58:41;98161.16;;;10.78;58.57
54592;BME280;40488;48.558;18.150;2023-03-14T07:01:16;98168.09;;;10.73;58.72
54592;BME280;40488;48.558;18.150;2023-03-14T07:03:46;98193.34;;;10.84;59.66
54592;BME280;40488;48.558;18.150;2023-03-14T07:06:14;98173.56;;;10.92;60.05
54592;BME280;40488;48.558;18.150;2023-03-14T07:08:44;98181.19;;;10.94;59.62
54592;BME280;40488;48.558;18.150;2023-03-14T07:11:15;98167.66;;;10.92;59.65
54592;BME280;40488;48.558;18.150;2023-03-14T07:13:43;98163.31;;;10.94;60.11
54592;BME280;40488;48.558;18.150;2023-03-14T07:16:12;98169.03;;;11.02;60.22
54592;BME280;40488;48.558;18.150;2023-03-14T07:18:40;98161.38;;;11.03;60.69
54592;BME280;40488;48.558;18.150;2023-03-14T07:21:10;98170.66;;;11.06;60.68
54592;BME280;40488;48.558;18.150;2023-03-14T07:23:39;98172.38;;;11.04;60.17
54592;BME280;40488;48.558;18.150;2023-03-14T07:26:09;98177.50;;;11.04;61.04
54592;BME280;40488;48.558;18.150;2023-03-14T07:28:45;98182.28;;;11.16;60.56
54592;BME280;40488;48.558;18.150;2023-03-14T07:31:17;98183.69;;;11.26;60.29
54592;BME280;40488;48.558;18.150;2023-03-14T07:33:46;98179.03;;;11.40;60.12
54592;BME280;40488;48.558;18.150;2023-03-14T07:36:14;98177.56;;;11.62;59.87
54592;BME280;40488;48.558;18.150;2023-03-14T07:38:44;98177.16;;;11.77;59.91
54592;BME280;40488;48.558;18.150;2023-03-14T07:41:33;98179.84;;;11.73;59.05
54592;BME280;40488;48.558;18.150;2023-03-14T07:44:13;98184.19;;;11.69;59.38
54592;BME280;40488;48.558;18.150;2023-03-14T07:46:42;98176.59;;;11.68;59.36
54592;BME280;40488;48.558;18.150;2023-03-14T07:49:10;98189.31;;;11.69;59.07
54592;BME280;40488;48.558;18.150;2023-03-14T07:51:38;98192.69;;;11.70;59.14
54592;BME280;40488;48.558;18.150;2023-03-14T07:54:07;98194.97;;;11.79;59.32
54592;BME280;40488;48.558;18.150;2023-03-14T07:56:37;98188.59;;;11.93;59.30
54592;BME280;40488;48.558;18.150;2023-03-14T07:59:06;98193.31;;;12.05;59.11
54592;BME280;40488;48.558;18.150;2023-03-14T08:01:35;98187.13;;;12.13;58.93
54592;BME280;40488;48.558;18.150;2023-03-14T08:04:03;98180.84;;;12.23;58.64
54592;BME280;40488;48.558;18.150;2023-03-14T08:06:32;98185.75;;;12.29;58.83
54592;BME280;40488;48.558;18.150;2023-03-14T08:09:01;98177.22;;;12.30;58.71
54592;BME280;40488;48.558;18.150;2023-03-14T08:11:30;98175.44;;;12.32;58.60
54592;BME280;40488;48.558;18.150;2023-03-14T08:14:00;98165.22;;;12.32;58.67
54592;BME280;40488;48.558;18.150;2023-03-14T08:16:29;98175.13;;;12.41;58.37
54592;BME280;40488;48.558;18.150;2023-03-14T08:18:57;98174.75;;;12.53;58.27
54592;BME280;40488;48.558;18.150;2023-03-14T08:21:26;98170.84;;;12.67;58.09
54592;BME280;40488;48.558;18.150;2023-03-14T08:23:55;98174.88;;;12.74;57.73
54592;BME280;40488;48.558;18.150;2023-03-14T08:26:23;98177.19;;;12.82;57.92
54592;BME280;40488;48.558;18.150;2023-03-14T08:28:52;98183.56;;;12.95;58.10
54592;BME280;40488;48.558;18.150;2023-03-14T08:31:22;98172.41;;;12.96;57.83
54592;BME280;40488;48.558;18.150;2023-03-14T08:33:50;98173.19;;;12.98;57.47
54592;BME280;40488;48.558;18.150;2023-03-14T08:36:20;98171.31;;;13.03;57.67
54592;BME280;40488;48.558;18.150;2023-03-14T08:38:50;98162.69;;;13.07;57.76
54592;BME280;40488;48.558;18.150;2023-03-14T08:41:18;98159.91;;;13.13;57.50
54592;BME280;40488;48.558;18.150;2023-03-14T08:43:47;98162.97;;;13.23;57.34
54592;BME280;40488;48.558;18.150;2023-03-14T08:46:15;98156.06;;;13.25;57.85
54592;BME280;40488;48.558;18.150;2023-03-14T08:48:45;98160.03;;;13.33;57.67
54592;BME280;40488;48.558;18.150;2023-03-14T08:51:14;98163.13;;;13.41;57.83
54592;BME280;40488;48.558;18.150;2023-03-14T08:53:42;98167.94;;;13.51;57.90
54592;BME280;40488;48.558;18.150;2023-03-14T08:56:11;98159.91;;;13.60;57.54
54592;BME280;40488;48.558;18.150;2023-03-14T08:58:39;98153.41;;;13.73;57.53
54592;BME280;40488;48.558;18.150;2023-03-14T09:01:09;98151.34;;;13.82;57.95
54592;BME280;40488;48.558;18.150;2023-03-14T09:03:38;98144.00;;;13.95;57.85
54592;BME280;40488;48.558;18.150;2023-03-14T09:06:08;98144.59;;;14.01;57.56
54592;BME280;40488;48.558;18.150;2023-03-14T09:08:38;98147.97;;;14.03;58.03
54592;BME280;40488;48.558;18.150;2023-03-14T09:11:07;98146.97;;;14.06;57.40
54592;BME280;40488;48.558;18.150;2023-03-14T09:13:35;98145.31;;;14.05;57.81
54592;BME280;40488;48.558;18.150;2023-03-14T09:16:04;98135.06;;;14.05;57.73
54592;BME280;40488;48.558;18.150;2023-03-14T09:18:33;98136.59;;;14.09;57.78
54592;BME280;40488;48.558;18.150;2023-03-14T09:21:02;98139.94;;;14.11;58.00
54592;BME280;40488;48.558;18.150;2023-03-14T09:23:32;98137.16;;;14.17;58.11
54592;BME280;40488;48.558;18.150;2023-03-14T09:26:01;98137.53;;;14.28;58.25
54592;BME280;40488;48.558;18.150;2023-03-14T09:28:29;98144.13;;;14.35;57.97
54592;BME280;40488;48.558;18.150;2023-03-14T09:31:00;98132.22;;;14.34;58.12
54592;BME280;40488;48.558;18.150;2023-03-14T09:33:33;98128.72;;;14.35;58.21
54592;BME280;40488;48.558;18.150;2023-03-14T09:36:01;98114.69;;;14.44;57.96
54592;BME280;40488;48.558;18.150;2023-03-14T09:38:30;98117.94;;;14.47;58.43
54592;BME280;40488;48.558;18.150;2023-03-14T09:41:01;98120.22;;;14.55;57.92
54592;BME280;40488;48.558;18.150;2023-03-14T09:43:31;98123.31;;;14.63;57.47
54592;BME280;40488;48.558;18.150;2023-03-14T09:46:01;98115.78;;;14.58;57.51
54592;BME280;40488;48.558;18.150;2023-03-14T09:48:32;98121.63;;;14.62;58.17
54592;BME280;40488;48.558;18.150;2023-03-14T09:51:01;98110.25;;;14.67;58.14
54592;BME280;40488;48.558;18.150;2023-03-14T09:53:34;98112.75;;;14.69;58.51
54592;BME280;40488;48.558;18.150;2023-03-14T09:56:08;98117.97;;;14.67;58.28
54592;BME280;40488;48.558;18.150;2023-03-14T09:58:40;98124.16;;;14.63;58.74
54592;BME280;40488;48.558;18.150;2023-03-14T10:01:09;98122.47;;;14.62;58.89
54592;BME280;40488;48.558;18.150;2023-03-14T10:03:39;98113.34;;;14.55;58.83
54592;BME280;40488;48.558;18.150;2023-03-14T10:06:11;98099.09;;;14.48;58.94
54592;BME280;40488;48.558;18.150;2023-03-14T10:08:40;98095.16;;;14.40;58.73
54592;BME280;40488;48.558;18.150;2023-03-14T10:11:13;98098.06;;;14.52;58.82
54592;BME280;40488;48.558;18.150;2023-03-14T10:14:02;98094.34;;;14.59;58.81
54592;BME280;40488;48.558;18.150;2023-03-14T10:16:32;98089.53;;;14.72;59.45
54592;BME280;40488;48.558;18.150;2023-03-14T10:19:02;98093.63;;;14.76;58.89
54592;BME280;40488;48.558;18.150;2023-03-14T10:21:35;98088.69;;;14.71;59.11
54592;BME280;40488;48.558;18.150;2023-03-14T10:24:17;98099.16;;;14.67;59.20
54592;BME280;40488;48.558;18.150;2023-03-14T10:26:51;98103.00;;;14.57;59.14
54592;BME280;40488;48.558;18.150;2023-03-14T10:29:20;98095.09;;;14.61;59.35
54592;BME280;40488;48.558;18.150;2023-03-14T10:31:52;98093.00;;;14.51;59.54
54592;BME280;40488;48.558;18.150;2023-03-14T10:34:23;98090.25;;;14.55;59.36
54592;BME280;40488;48.558;18.150;2023-03-14T10:36:52;98093.56;;;14.57;58.95
54592;BME280;40488;48.558;18.150;2023-03-14T10:39:23;98092.03;;;14.53;59.21
54592;BME280;40488;48.558;18.150;2023-03-14T10:41:55;98076.88;;;14.47;59.49
54592;BME280;40488;48.558;18.150;2023-03-14T10:44:30;98072.28;;;14.55;58.90
54592;BME280;40488;48.558;18.150;2023-03-14T10:47:00;98064.88;;;14.68;58.97
54592;BME280;40488;48.558;18.150;2023-03-14T10:49:30;98067.03;;;14.77;58.94
54592;BME280;40488;48.558;18.150;2023-03-14T10:52:12;98064.78;;;14.90;59.31
54592;BME280;40488;48.558;18.150;2023-03-14T10:54:41;98064.50;;;14.96;59.37
54592;BME280;40488;48.558;18.150;2023-03-14T10:57:18;98058.53;;;14.95;59.07
54592;BME280;40488;48.558;18.150;2023-03-14T10:59:47;98056.28;;;14.88;58.81
54592;BME280;40488;48.558;18.150;2023-03-14T11:02:30;98061.59;;;14.85;59.19
54592;BME280;40488;48.558;18.150;2023-03-14T11:05:06;98052.72;;;14.71;58.08
54592;BME280;40488;48.558;18.150;2023-03-14T11:07:38;98058.91;;;14.67;58.49
54592;BME280;40488;48.558;18.150;2023-03-14T11:10:10;98053.13;;;14.62;58.21
54592;BME280;40488;48.558;18.150;2023-03-14T11:12:44;98041.00;;;14.66;57.94
54592;BME280;40488;48.558;18.150;2023-03-14T11:15:16;98034.88;;;14.68;57.35
54592;BME280;40488;48.558;18.150;2023-03-14T11:17:48;98049.06;;;14.77;57.23
54592;BME280;40488;48.558;18.150;2023-03-14T11:20:31;98031.72;;;14.82;57.57
54592;BME280;40488;48.558;18.150;2023-03-14T11:23:02;98035.06;;;14.84;57.18
54592;BME280;40488;48.558;18.150;2023-03-14T11:25:32;98035.91;;;14.85;57.48
54592;BME280;40488;48.558;18.150;2023-03-14T11:28:08;98035.38;;;14.76;57.65
54592;BME280;40488;48.558;18.150;2023-03-14T11:30:39;98033.09;;;14.70;57.75
54592;BME280;40488;48.558;18.150;2023-03-14T11:33:13;98028.09;;;14.67;57.57
54592;BME280;40488;48.558;18.150;2023-03-14T11:35:43;98023.03;;;14.66;57.40
54592;BME280;40488;48.558;18.150;2023-03-14T11:38:19;98016.16;;;14.66;57.34
54592;BME280;40488;48.558;18.150;2023-03-14T11:40:52;98010.81;;;14.71;57.26
54592;BME280;40488;48.558;18.150;2023-03-14T11:43:26;98002.94;;;14.75;57.21
54592;BME280;40488;48.558;18.150;2023-03-14T11:45:57;98013.00;;;14.80;57.16
54592;BME280;40488;48.558;18.150;2023-03-14T11:48:33;98015.41;;;14.83;57.58
54592;BME280;40488;48.558;18.150;2023-03-14T11:51:05;98002.75;;;14.78;58.11
54592;BME280;40488;48.558;18.150;2023-03-14T11:53:39;97997.00;;;14.73;57.67
54592;BME280;40488;48.558;18.150;2023-03-14T11:56:09;97996.22;;;14.71;58.02
54592;BME280;40488;48.558;18.150;2023-03-14T11:58:41;97997.16;;;14.70;58.13
54592;BME280;40488;48.558;18.150;2023-03-14T12:01:13;97985.91;;;14.73;57.68
54592;BME280;40488;48.558;18.150;2023-03-14T12:03:51;97984.25;;;14.72;57.43
54592;BME280;40488;48.558;18.150;2023-03-14T12:06:24;97985.91;;;14.73;57.64
54592;BME280;40488;48.558;18.150;2023-03-14T12:08:55;97975.66;;;14.73;57.72
54592;BME280;40488;48.558;18.150;2023-03-14T12:11:36;97971.47;;;14.70;58.11
54592;BME280;40488;48.558;18.150;2023-03-14T12:16:50;97964.94;;;14.63;58.56
54592;BME280;40488;48.558;18.150;2023-03-14T12:19:28;97959.81;;;14.63;58.14
54592;BME280;40488;48.558;18.150;2023-03-14T12:21:59;97956.47;;;14.61;58.68
54592;BME280;40488;48.558;18.150;2023-03-14T12:24:30;97953.13;;;14.59;59.01
54592;BME280;40488;48.558;18.150;2023-03-14T12:27:00;97941.97;;;14.60;58.84
54592;BME280;40488;48.558;18.150;2023-03-14T12:29:29;97942.72;;;14.62;58.75
54592;BME280;40488;48.558;18.150;2023-03-14T12:34:41;97943.22;;;14.70;59.38
54592;BME280;40488;48.558;18.150;2023-03-14T12:37:16;97936.34;;;14.71;59.63
54592;BME280;40488;48.558;18.150;2023-03-14T12:39:49;97947.44;;;14.71;59.61
54592;BME280;40488;48.558;18.150;2023-03-14T12:42:22;97935.53;;;14.70;60.15
54592;BME280;40488;48.558;18.150;2023-03-14T12:45:21;97942.53;;;14.67;60.95
54592;BME280;40488;48.558;18.150;2023-03-14T12:47:55;97932.59;;;14.59;61.50
54592;BME280;40488;48.558;18.150;2023-03-14T12:50:28;97931.19;;;14.52;61.97
54592;BME280;40488;48.558;18.150;2023-03-14T12:55:49;97933.41;;;14.41;63.30
54592;BME280;40488;48.558;18.150;2023-03-14T12:58:23;97942.28;;;14.34;63.21
54592;BME280;40488;48.558;18.150;2023-03-14T13:00:58;97944.19;;;14.29;64.31
54592;BME280;40488;48.558;18.150;2023-03-14T13:03:36;97954.69;;;14.23;64.84
54592;BME280;40488;48.558;18.150;2023-03-14T13:06:09;97956.78;;;14.15;65.22
54592;BME280;40488;48.558;18.150;2023-03-14T13:08:39;97950.25;;;14.08;66.48
54592;BME280;40488;48.558;18.150;2023-03-14T13:11:09;97959.88;;;14.03;67.04
54592;BME280;40488;48.558;18.150;2023-03-14T13:13:44;97967.16;;;13.92;68.35
54592;BME280;40488;48.558;18.150;2023-03-14T13:16:16;97969.75;;;13.70;68.80
54592;BME280;40488;48.558;18.150;2023-03-14T13:18:45;97974.03;;;13.50;69.75
54592;BME280;40488;48.558;18.150;2023-03-14T13:21:17;97979.00;;;13.32;71.25
54592;BME280;40488;48.558;18.150;2023-03-14T13:26:26;97977.44;;;13.07;73.19
54592;BME280;40488;48.558;18.150;2023-03-14T13:29:00;97978.72;;;12.95;74.26